createdAt,value
2022-12-25T00:01:49.325Z,14.11
2022-12-25T00:04:17.130Z,14.55
2022-12-25T00:06:45.000Z,14.80
2022-12-25T00:09:14.145Z,14.50
2022-12-25T00:11:42.079Z,14.22
2022-12-25T00:14:09.983Z,14.14
2022-12-25T00:16:37.967Z,13.88
2022-12-25T00:19:05.832Z,13.52
2022-12-25T00:21:34.066Z,14.22
2022-12-25T00:24:03.609Z,13.57
2022-12-25T00:26:32.893Z,14.41
2022-12-25T00:29:00.955Z,14.20
2022-12-25T00:31:29.021Z,13.83
2022-12-25T00:33:56.976Z,13.95
2022-12-25T00:36:24.986Z,13.91
2022-12-25T00:38:52.860Z,13.77
2022-12-25T00:41:43.107Z,13.90
2022-12-25T00:44:13.849Z,13.84
2022-12-25T00:46:42.335Z,13.83
2022-12-25T00:49:10.492Z,13.53
2022-12-25T00:51:38.387Z,13.36
2022-12-25T00:54:06.247Z,13.63
2022-12-25T00:56:34.086Z,13.49
2022-12-25T00:59:01.984Z,13.28
2022-12-25T01:01:31.583Z,13.60
2022-12-25T01:04:00.340Z,13.23
2022-12-25T01:06:28.911Z,13.90
2022-12-25T01:09:14.727Z,13.66
2022-12-25T01:11:42.620Z,13.88
2022-12-25T01:14:10.783Z,13.78
2022-12-25T01:16:40.180Z,13.60
2022-12-25T01:19:10.396Z,12.74
2022-12-25T01:21:38.457Z,13.09
2022-12-25T01:24:06.960Z,13.66
2022-12-25T01:26:34.997Z,13.70
2022-12-25T01:29:03.550Z,13.28
2022-12-25T01:31:31.689Z,13.30
2022-12-25T01:34:00.915Z,13.09
2022-12-25T01:36:29.076Z,12.58
2022-12-25T01:38:56.964Z,12.93
2022-12-25T01:41:26.119Z,13.18
2022-12-25T01:44:04.427Z,13.49
2022-12-25T01:46:33.003Z,13.23
2022-12-25T01:49:04.558Z,13.54
2022-12-25T01:51:35.258Z,13.39
2022-12-25T01:54:06.945Z,13.37
2022-12-25T01:56:35.751Z,13.39
2022-12-25T01:59:04.087Z,13.40
2022-12-25T02:01:32.115Z,13.37
2022-12-25T02:04:07.027Z,13.13
2022-12-25T02:06:36.163Z,13.06
2022-12-25T02:09:04.329Z,12.52
2022-12-25T02:11:49.767Z,12.80
2022-12-25T02:14:17.696Z,13.20
2022-12-25T02:16:56.642Z,12.80
2022-12-25T02:19:38.514Z,12.93
2022-12-25T02:22:16.054Z,12.92
2022-12-25T02:24:54.402Z,12.90
2022-12-25T02:27:44.236Z,13.13
2022-12-25T02:30:12.765Z,13.16
2022-12-25T02:32:44.393Z,13.19
2022-12-25T02:35:15.415Z,12.80
2022-12-25T02:37:46.151Z,12.28
2022-12-25T02:40:17.565Z,12.45
2022-12-25T02:43:07.674Z,12.46
2022-12-25T02:45:56.503Z,12.58
2022-12-25T02:48:42.925Z,12.50
2022-12-25T02:51:31.131Z,12.78
2022-12-25T02:54:20.255Z,12.73
2022-12-25T02:57:06.670Z,12.47
2022-12-25T02:59:54.966Z,11.98
2022-12-25T03:02:42.414Z,12.49
2022-12-25T03:05:30.269Z,12.53
2022-12-25T03:07:59.980Z,12.51
2022-12-25T03:10:46.341Z,12.58
2022-12-25T03:13:17.506Z,12.31
2022-12-25T03:16:04.539Z,12.71
2022-12-25T03:18:34.004Z,12.46
2022-12-25T03:21:19.695Z,12.44
2022-12-25T03:24:08.374Z,12.22
2022-12-25T03:26:53.564Z,12.54
2022-12-25T03:29:35.465Z,11.53
2022-12-25T03:32:17.779Z,12.34
2022-12-25T03:35:08.400Z,12.16
2022-12-25T03:38:14.147Z,12.05
2022-12-25T03:41:19.489Z,12.52
2022-12-25T03:44:05.002Z,12.53
2022-12-25T03:46:50.709Z,12.46
2022-12-25T03:49:41.224Z,12.44
2022-12-25T03:52:28.292Z,12.42
2022-12-25T03:55:14.518Z,12.40
2022-12-25T03:57:59.943Z,12.11
2022-12-25T04:00:45.148Z,11.98
2022-12-25T04:03:30.583Z,11.72
2022-12-25T04:06:17.548Z,12.16
2022-12-25T04:09:05.824Z,12.25
2022-12-25T04:11:51.236Z,12.29
2022-12-25T04:14:36.549Z,12.07
2022-12-25T04:17:22.106Z,12.26
2022-12-25T04:20:07.469Z,12.01
2022-12-25T04:22:53.897Z,12.09
2022-12-25T04:25:39.406Z,12.02
2022-12-25T04:28:24.066Z,12.08
2022-12-25T04:31:09.568Z,11.76
2022-12-25T04:33:54.900Z,12.10
2022-12-25T04:36:23.877Z,12.30
2022-12-25T04:38:53.126Z,12.05
2022-12-25T04:41:21.110Z,12.15
2022-12-25T04:43:48.891Z,12.10
2022-12-25T04:46:16.765Z,12.01
2022-12-25T04:48:44.701Z,11.99
2022-12-25T04:51:14.522Z,11.96
2022-12-25T04:53:42.745Z,11.92
2022-12-25T04:56:11.929Z,11.84
2022-12-25T04:58:39.985Z,11.75
2022-12-25T05:01:07.797Z,11.73
2022-12-25T05:03:36.627Z,11.69
2022-12-25T05:06:05.915Z,11.65
2022-12-25T05:08:35.198Z,11.62
2022-12-25T05:11:06.919Z,11.57
2022-12-25T05:13:36.110Z,11.56
2022-12-25T05:16:08.844Z,11.51
2022-12-25T05:18:37.150Z,11.45
2022-12-25T05:21:05.435Z,11.29
2022-12-25T05:23:33.460Z,11.39
2022-12-25T05:26:05.054Z,11.47
2022-12-25T05:28:32.884Z,11.55
2022-12-25T05:31:02.253Z,11.40
2022-12-25T05:33:31.658Z,11.40
2022-12-25T05:35:59.749Z,11.49
2022-12-25T05:38:27.639Z,11.58
2022-12-25T05:40:56.675Z,11.66
2022-12-25T05:43:24.993Z,11.65
2022-12-25T05:45:52.922Z,11.67
2022-12-25T05:48:22.144Z,11.61
2022-12-25T05:50:49.934Z,11.55
2022-12-25T05:53:18.904Z,11.51
2022-12-25T05:55:46.704Z,11.50
2022-12-25T05:58:15.032Z,11.41
2022-12-25T06:00:44.894Z,11.43
2022-12-25T06:03:12.811Z,11.48
2022-12-25T06:05:42.098Z,11.57
2022-12-25T06:08:09.918Z,11.51
2022-12-25T06:10:37.753Z,11.59
2022-12-25T06:13:07.830Z,11.64
2022-12-25T06:15:35.675Z,11.63
2022-12-25T06:18:03.676Z,11.59
2022-12-25T06:20:31.538Z,11.65
2022-12-25T06:23:01.086Z,11.61
2022-12-25T06:25:29.056Z,11.73
2022-12-25T06:27:56.895Z,11.81
2022-12-25T06:30:24.704Z,11.63
2022-12-25T06:32:52.591Z,11.67
2022-12-25T06:35:20.447Z,11.83
2022-12-25T06:37:48.227Z,11.75
2022-12-25T06:40:17.781Z,12.11
2022-12-25T06:42:45.563Z,12.18
2022-12-25T06:45:13.649Z,12.18
2022-12-25T06:47:41.448Z,11.98
2022-12-25T06:50:09.502Z,11.94
2022-12-25T06:52:37.433Z,11.83
2022-12-25T06:55:05.674Z,11.80
2022-12-25T06:57:34.985Z,11.82
2022-12-25T07:00:03.531Z,11.75
2022-12-25T07:02:32.512Z,11.88
2022-12-25T07:05:01.376Z,11.63
2022-12-25T07:07:29.215Z,11.51
2022-12-25T07:09:57.125Z,11.38
2022-12-25T07:12:25.651Z,11.41
2022-12-25T07:14:56.615Z,11.41
2022-12-25T07:17:24.929Z,11.38
2022-12-25T07:19:52.769Z,11.50
2022-12-25T07:22:20.643Z,11.64
2022-12-25T07:24:48.442Z,11.67
2022-12-25T07:27:16.317Z,11.61
2022-12-25T07:29:44.092Z,11.64
2022-12-25T07:32:13.454Z,11.70
2022-12-25T07:34:41.273Z,11.68
2022-12-25T07:37:09.264Z,11.70
2022-12-25T07:39:37.187Z,11.80
2022-12-25T07:42:05.411Z,11.85
2022-12-25T07:44:33.187Z,11.94
2022-12-25T07:47:01.066Z,11.90
2022-12-25T07:49:30.214Z,11.97
2022-12-25T07:51:58.140Z,12.00
2022-12-25T07:54:25.961Z,12.13
2022-12-25T07:56:54.241Z,12.17
2022-12-25T07:59:22.318Z,12.18
2022-12-25T08:01:50.923Z,12.28
2022-12-25T08:04:19.186Z,12.50
2022-12-25T08:06:48.409Z,12.72
2022-12-25T08:09:16.267Z,12.75
2022-12-25T08:11:46.686Z,12.80
2022-12-25T08:14:15.151Z,12.75
2022-12-25T08:16:43.042Z,12.75
2022-12-25T08:19:11.121Z,12.75
2022-12-25T08:21:39.501Z,12.70
2022-12-25T08:24:09.274Z,12.74
2022-12-25T08:26:37.369Z,12.69
2022-12-25T08:29:05.206Z,12.60
2022-12-25T08:31:35.793Z,12.69
2022-12-25T08:34:06.978Z,12.73
2022-12-25T08:36:34.776Z,12.78
2022-12-25T08:39:03.579Z,12.94
2022-12-25T08:41:34.288Z,13.09
2022-12-25T08:44:02.142Z,13.07
2022-12-25T08:46:30.060Z,13.17
2022-12-25T08:48:58.110Z,13.29
2022-12-25T08:51:27.313Z,13.44
2022-12-25T08:54:00.253Z,13.48
2022-12-25T08:56:28.904Z,13.88
2022-12-25T08:58:58.113Z,13.98
2022-12-25T09:01:26.090Z,14.50
2022-12-25T09:03:53.994Z,14.48
2022-12-25T09:06:22.112Z,14.74
2022-12-25T09:08:50.169Z,14.45
2022-12-25T09:11:19.055Z,14.21
2022-12-25T09:13:46.982Z,14.10
2022-12-25T09:16:17.920Z,14.17
2022-12-25T09:18:45.909Z,14.26
2022-12-25T09:21:15.171Z,14.51
2022-12-25T09:23:43.447Z,14.71
2022-12-25T09:26:13.827Z,14.45
2022-12-25T09:28:48.529Z,14.51
2022-12-25T09:31:19.888Z,14.71
2022-12-25T09:33:48.492Z,14.73
2022-12-25T09:36:16.275Z,14.98
2022-12-25T09:38:44.176Z,15.11
2022-12-25T09:41:16.833Z,14.75
2022-12-25T09:43:48.841Z,14.45
2022-12-25T09:46:20.517Z,14.34
2022-12-25T09:48:54.818Z,14.89
2022-12-25T09:51:23.377Z,15.22
2022-12-25T09:53:55.615Z,15.38
2022-12-25T09:56:25.886Z,15.41
2022-12-25T09:58:54.175Z,15.27
2022-12-25T10:01:31.843Z,15.18
2022-12-25T10:04:22.565Z,15.42
2022-12-25T10:06:58.000Z,15.67
2022-12-25T10:09:38.961Z,15.79
2022-12-25T10:12:17.021Z,15.18
2022-12-25T10:15:04.050Z,15.28
2022-12-25T10:17:40.244Z,15.84
2022-12-25T10:20:14.721Z,15.92
2022-12-25T10:22:45.597Z,15.96
2022-12-25T10:25:17.874Z,16.16
2022-12-25T10:27:46.491Z,15.91
2022-12-25T10:30:16.822Z,15.92
2022-12-25T10:32:46.820Z,16.11
2022-12-25T10:35:16.197Z,16.13
2022-12-25T10:37:45.270Z,16.32
2022-12-25T10:40:25.400Z,16.47
2022-12-25T10:42:56.642Z,16.17
2022-12-25T10:45:24.442Z,16.24
2022-12-25T10:48:07.424Z,16.91
2022-12-25T10:50:45.872Z,16.80
2022-12-25T10:53:20.239Z,16.56
2022-12-25T10:56:02.311Z,17.41
2022-12-25T10:58:30.831Z,16.90
2022-12-25T11:01:01.570Z,17.07
2022-12-25T11:03:32.472Z,16.77
2022-12-25T11:06:01.278Z,16.46
2022-12-25T11:08:30.275Z,16.15
2022-12-25T11:10:59.720Z,16.06
2022-12-25T11:13:28.823Z,16.21
2022-12-25T11:16:06.033Z,16.24
2022-12-25T11:18:37.154Z,16.34
2022-12-25T11:21:17.008Z,16.60
2022-12-25T11:23:46.779Z,16.72
2022-12-25T11:26:15.480Z,16.65
2022-12-25T11:28:44.324Z,17.10
2022-12-25T11:31:15.525Z,16.76
2022-12-25T11:33:48.667Z,16.53
2022-12-25T11:36:21.416Z,16.41
2022-12-25T11:38:49.281Z,16.63
2022-12-25T11:41:20.717Z,16.30
2022-12-25T11:43:51.839Z,16.20
2022-12-25T11:46:22.513Z,16.26
2022-12-25T11:48:56.239Z,16.10
2022-12-25T11:51:26.671Z,16.26
2022-12-25T11:53:55.894Z,16.26
2022-12-25T11:56:26.343Z,16.44
2022-12-25T11:58:55.696Z,16.31
2022-12-25T12:01:30.834Z,16.48
2022-12-25T12:04:01.179Z,16.56
2022-12-25T12:06:33.747Z,16.59
2022-12-25T12:09:12.967Z,16.51
2022-12-25T12:11:44.926Z,16.65
2022-12-25T12:14:22.960Z,16.59
2022-12-25T12:16:51.091Z,16.24
2022-12-25T12:19:27.627Z,16.35
2022-12-25T12:21:57.418Z,16.44
2022-12-25T12:24:29.706Z,16.49
2022-12-25T12:27:02.373Z,16.56
2022-12-25T12:29:32.528Z,16.64
2022-12-25T12:32:02.642Z,16.83
2022-12-25T12:34:42.469Z,16.75
2022-12-25T12:37:22.876Z,16.76
2022-12-25T12:39:55.162Z,16.57
2022-12-25T12:42:25.941Z,16.63
2022-12-25T12:44:55.391Z,16.77
2022-12-25T12:47:33.488Z,16.36
2022-12-25T12:50:03.029Z,16.27
2022-12-25T12:52:35.769Z,16.33
2022-12-25T12:55:05.779Z,16.39
2022-12-25T12:57:39.230Z,16.35
2022-12-25T13:00:10.251Z,16.37
2022-12-25T13:03:16.361Z,16.49
2022-12-25T13:05:47.980Z,16.48
2022-12-25T13:08:27.579Z,16.53
2022-12-25T13:11:05.732Z,16.83
2022-12-25T13:13:37.396Z,17.08
2022-12-25T13:16:05.833Z,16.63
2022-12-25T13:18:34.783Z,17.04
2022-12-25T13:21:05.508Z,17.41
2022-12-25T13:23:35.176Z,17.34
2022-12-25T13:26:04.342Z,17.26
2022-12-25T13:28:33.810Z,17.25
2022-12-25T13:31:03.946Z,17.42
2022-12-25T13:33:31.907Z,17.18
2022-12-25T13:35:59.812Z,17.36
2022-12-25T13:38:29.941Z,17.23
2022-12-25T13:41:16.365Z,17.25
2022-12-25T13:43:44.833Z,16.88
2022-12-25T13:46:13.805Z,16.53
2022-12-25T13:48:41.793Z,16.30
2022-12-25T13:51:15.220Z,16.14
2022-12-25T13:53:44.802Z,15.99
2022-12-25T13:56:15.282Z,16.19
2022-12-25T13:58:43.455Z,16.13
2022-12-25T14:01:12.663Z,16.12
2022-12-25T14:03:42.217Z,16.12
2022-12-25T14:06:18.931Z,16.21
2022-12-25T14:08:48.786Z,16.25
2022-12-25T14:11:17.964Z,16.03
2022-12-25T14:13:47.897Z,15.99
2022-12-25T14:16:18.384Z,16.07
2022-12-25T14:18:58.062Z,16.06
2022-12-25T14:21:30.035Z,15.98
2022-12-25T14:23:59.608Z,16.05
2022-12-25T14:26:29.312Z,16.13
2022-12-25T14:29:03.039Z,16.08
2022-12-25T14:31:31.012Z,16.05
2022-12-25T14:33:59.891Z,16.09
2022-12-25T14:36:28.013Z,16.06
2022-12-25T14:39:01.438Z,16.08
2022-12-25T14:41:38.379Z,16.14
2022-12-25T14:44:08.197Z,16.21
2022-12-25T14:46:36.127Z,16.11
2022-12-25T14:49:05.717Z,16.33
2022-12-25T14:51:34.601Z,16.39
2022-12-25T14:54:05.639Z,16.38
2022-12-25T14:56:38.050Z,16.49
2022-12-25T14:59:07.658Z,16.43
2022-12-25T15:01:37.141Z,16.37
2022-12-25T15:04:07.404Z,16.30
2022-12-25T15:06:35.301Z,16.27
2022-12-25T15:09:07.020Z,16.06
2022-12-25T15:11:34.868Z,16.24
2022-12-25T15:14:02.725Z,16.40
2022-12-25T15:16:32.848Z,16.45
2022-12-25T15:19:01.929Z,16.22
2022-12-25T15:21:31.561Z,16.20
2022-12-25T15:24:00.353Z,16.17
2022-12-25T15:26:31.455Z,16.22
2022-12-25T15:28:59.602Z,16.21
2022-12-25T15:31:28.997Z,16.15
2022-12-25T15:33:58.846Z,16.18
2022-12-25T15:36:27.349Z,16.17
2022-12-25T15:38:55.986Z,16.06
2022-12-25T15:41:43.558Z,16.10
2022-12-25T15:44:13.656Z,16.13
2022-12-25T15:46:41.588Z,15.92
2022-12-25T15:49:10.230Z,15.85
2022-12-25T15:51:38.117Z,16.01
2022-12-25T15:54:06.273Z,16.07
2022-12-25T15:56:39.072Z,15.81
2022-12-25T15:59:06.913Z,15.99
2022-12-25T16:01:36.198Z,16.04
2022-12-25T16:04:04.353Z,16.12
2022-12-25T16:06:32.200Z,16.26
2022-12-25T16:09:00.026Z,16.04
2022-12-25T16:11:27.903Z,15.82
2022-12-25T16:13:55.678Z,15.87
2022-12-25T16:16:23.671Z,15.58
2022-12-25T16:18:52.865Z,15.50
2022-12-25T16:21:22.043Z,15.46
2022-12-25T16:23:49.992Z,15.31
2022-12-25T16:26:17.960Z,15.34
2022-12-25T16:28:46.353Z,15.39
2022-12-25T16:31:14.273Z,15.53
2022-12-25T16:33:42.127Z,15.67
2022-12-25T16:36:11.549Z,15.88
2022-12-25T16:38:39.333Z,15.85
2022-12-25T16:41:09.183Z,15.85
2022-12-25T16:43:37.251Z,15.91
2022-12-25T16:46:09.970Z,15.98
2022-12-25T16:48:37.993Z,15.88
2022-12-25T16:51:11.110Z,15.84
2022-12-25T16:53:39.218Z,15.92
2022-12-25T16:56:08.059Z,15.89
2022-12-25T16:58:36.319Z,15.92
2022-12-25T17:01:08.183Z,16.09
2022-12-25T17:03:36.331Z,15.85
2022-12-25T17:06:04.989Z,16.02
2022-12-25T17:08:34.162Z,15.85
2022-12-25T17:11:05.588Z,15.63
2022-12-25T17:13:33.588Z,15.73
2022-12-25T17:16:01.479Z,15.85
2022-12-25T17:18:29.350Z,15.85
2022-12-25T17:20:57.230Z,16.19
2022-12-25T17:23:25.262Z,16.35
2022-12-25T17:25:54.419Z,16.37
2022-12-25T17:28:22.260Z,16.29
2022-12-25T17:30:50.101Z,16.30
2022-12-25T17:33:17.910Z,16.21
2022-12-25T17:35:45.784Z,16.14
2022-12-25T17:38:14.001Z,16.31
2022-12-25T17:40:42.100Z,16.23
2022-12-25T17:43:17.180Z,16.26
2022-12-25T17:45:48.336Z,16.30
2022-12-25T17:48:16.174Z,16.14
2022-12-25T17:50:44.231Z,16.23
2022-12-25T17:53:12.541Z,16.13
2022-12-25T17:55:41.297Z,16.18
2022-12-25T17:58:11.013Z,16.36
2022-12-25T18:00:38.907Z,16.29
2022-12-25T18:03:11.457Z,15.97
2022-12-25T18:05:40.198Z,15.82
2022-12-25T18:08:07.960Z,15.99
2022-12-25T18:10:37.611Z,15.55
2022-12-25T18:13:05.531Z,15.81
2022-12-25T18:15:37.544Z,15.92
2022-12-25T18:18:06.102Z,16.21
2022-12-25T18:20:39.580Z,16.21
2022-12-25T18:23:08.218Z,16.18
2022-12-25T18:25:37.997Z,16.37
2022-12-25T18:28:06.185Z,15.81
2022-12-25T18:30:35.406Z,16.33
2022-12-25T18:33:03.180Z,16.78
2022-12-25T18:35:31.158Z,16.89
2022-12-25T18:37:58.973Z,16.83
2022-12-25T18:40:27.377Z,16.80
2022-12-25T18:43:02.695Z,16.75
2022-12-25T18:45:31.264Z,16.76
2022-12-25T18:48:03.139Z,16.89
2022-12-25T18:50:31.156Z,16.69
2022-12-25T18:52:58.940Z,16.68
2022-12-25T18:55:27.172Z,16.65
2022-12-25T18:57:55.136Z,16.56
2022-12-25T19:00:23.511Z,16.60
2022-12-25T19:02:52.392Z,16.97
2022-12-25T19:05:21.586Z,17.11
2022-12-25T19:07:49.507Z,16.98
2022-12-25T19:10:17.385Z,16.55
2022-12-25T19:12:45.656Z,16.80
2022-12-25T19:15:13.531Z,16.78
2022-12-25T19:17:41.449Z,16.74
2022-12-25T19:20:10.872Z,16.85
2022-12-25T19:22:40.069Z,16.96
2022-12-25T19:25:09.126Z,16.73
2022-12-25T19:27:37.000Z,17.02
2022-12-25T19:30:05.690Z,17.16
2022-12-25T19:32:33.507Z,16.49
2022-12-25T19:35:04.423Z,16.82
2022-12-25T19:37:32.703Z,16.66
2022-12-25T19:40:02.178Z,16.59
2022-12-25T19:42:30.075Z,16.45
2022-12-25T19:44:58.101Z,16.31
2022-12-25T19:47:25.988Z,16.30
2022-12-25T19:49:56.418Z,16.60
2022-12-25T19:52:27.436Z,16.62
2022-12-25T19:54:57.356Z,16.77
2022-12-25T19:57:26.569Z,16.51
2022-12-25T19:59:54.517Z,16.18
2022-12-25T20:02:22.486Z,16.59
2022-12-25T20:04:50.499Z,16.73
2022-12-25T20:07:18.324Z,16.64
2022-12-25T20:09:46.195Z,16.39
2022-12-25T20:12:16.234Z,16.37
2022-12-25T20:14:45.585Z,16.74
2022-12-25T20:17:15.979Z,16.63
2022-12-25T20:19:44.235Z,16.80
2022-12-25T20:22:12.187Z,16.95
2022-12-25T20:24:40.083Z,16.90
2022-12-25T20:27:07.921Z,16.64
2022-12-25T20:29:36.072Z,16.40
2022-12-25T20:32:05.939Z,16.72
2022-12-25T20:34:33.864Z,16.82
2022-12-25T20:37:01.751Z,16.95
2022-12-25T20:39:29.655Z,16.57
2022-12-25T20:41:57.573Z,16.52
2022-12-25T20:44:25.418Z,16.72
2022-12-25T20:46:54.873Z,16.86
2022-12-25T20:49:24.090Z,16.89
2022-12-25T20:51:59.793Z,16.39
2022-12-25T20:54:31.142Z,17.11
2022-12-25T20:56:59.108Z,16.52
2022-12-25T20:59:30.835Z,16.28
2022-12-25T21:02:01.752Z,16.60
2022-12-25T21:04:31.167Z,16.48
2022-12-25T21:07:00.264Z,16.71
2022-12-25T21:09:28.150Z,15.72
2022-12-25T21:11:56.177Z,16.58
2022-12-25T21:14:24.049Z,16.75
2022-12-25T21:16:52.132Z,16.14
2022-12-25T21:19:19.981Z,16.86
2022-12-25T21:21:54.730Z,16.11
2022-12-25T21:24:22.555Z,16.53
2022-12-25T21:26:50.431Z,16.48
2022-12-25T21:29:22.755Z,16.26
2022-12-25T21:32:08.805Z,16.86
2022-12-25T21:34:36.741Z,16.65
2022-12-25T21:37:05.912Z,17.31
2022-12-25T21:39:33.947Z,17.20
2022-12-25T21:42:04.313Z,16.54
2022-12-25T21:44:32.134Z,17.20
2022-12-25T21:46:59.961Z,16.92
2022-12-25T21:49:45.421Z,17.42
2022-12-25T21:52:14.731Z,16.78
2022-12-25T21:54:42.688Z,17.37
2022-12-25T21:57:10.567Z,17.22
2022-12-25T21:59:38.559Z,16.46
2022-12-25T22:02:11.214Z,15.42
2022-12-25T22:04:39.599Z,15.76
2022-12-25T22:07:18.290Z,16.42
2022-12-25T22:09:48.838Z,15.37
2022-12-25T22:12:35.646Z,15.99
2022-12-25T22:15:06.350Z,16.17
2022-12-25T22:17:53.504Z,17.07
2022-12-25T22:20:23.101Z,17.06
2022-12-25T22:22:51.431Z,17.15
2022-12-25T22:25:21.333Z,17.12
2022-12-25T22:27:49.941Z,16.25
2022-12-25T22:30:19.517Z,15.13
2022-12-25T22:32:48.020Z,16.08
2022-12-25T22:35:17.829Z,15.88
2022-12-25T22:37:46.222Z,15.81
2022-12-25T22:40:15.807Z,17.20
2022-12-25T22:42:45.455Z,14.42
2022-12-25T22:45:13.587Z,15.91
2022-12-25T22:47:41.942Z,16.47
2022-12-25T22:50:11.109Z,16.09
2022-12-25T22:52:39.282Z,15.33
2022-12-25T22:55:09.264Z,16.11
2022-12-25T22:57:37.315Z,16.20
2022-12-25T23:00:09.049Z,16.62
2022-12-25T23:02:37.432Z,16.26
2022-12-25T23:05:05.955Z,15.57
2022-12-25T23:07:33.792Z,16.27
2022-12-25T23:10:01.735Z,16.96
2022-12-25T23:12:47.137Z,15.44
2022-12-25T23:15:16.611Z,16.39
2022-12-25T23:18:01.955Z,16.21
2022-12-25T23:20:47.261Z,16.25
2022-12-25T23:23:33.932Z,16.83
2022-12-25T23:26:11.404Z,16.33
2022-12-25T23:28:59.505Z,15.49
2022-12-25T23:31:30.939Z,16.53
2022-12-25T23:33:59.452Z,16.99
2022-12-25T23:36:28.184Z,16.42
2022-12-25T23:38:56.070Z,15.71
2022-12-25T23:41:25.560Z,15.16
2022-12-25T23:43:53.413Z,16.52
2022-12-25T23:46:21.383Z,16.71
2022-12-25T23:48:50.647Z,16.17
2022-12-25T23:51:18.607Z,16.15
2022-12-25T23:53:46.547Z,15.09
2022-12-25T23:56:14.758Z,16.08
2022-12-25T23:58:45.094Z,16.16
